Hav Tind — OZ2071 — position and weather

sailwx.info

Track history (hours):
 
Tides and Currents Weather Stations Pressure Air Temp Water Temp Dewpoint Dewpoint Depression Visibility Wind Speed Wind Dir Waves Ship Positions

Hav Tind

Last reported at 2017-May-26 10:54 UTC. Time now 2017-May-26 16:51 UTC.
Position N 62°14' W 006°48'.

Length 60 m; draft 4 m.

Type: Cargo ship. MMSI: 231565000.

Date/timePositionNaut miles runAvg speedWind from/ knotsBaromVisibWave heightAir tempDewpointWater temp
2017-May-26 10:54N 62°14' W 006°48'0 0.0
2017-May-26 10:31N 62°14' W 006°48'0 0.0
2017-May-26 10:00N 62°14' W 006°48'0 0.0
2017-May-26 03:03N 62°14' W 006°48'0 0.0
2017-May-26 02:46N 62°14' W 006°48'0 0.0
2017-May-26 02:28N 62°14' W 006°48'0 0.0
2017-May-26 02:00N 62°14' W 006°48'0 0.0
2017-May-25 08:52N 62°14' W 006°48'0 0.0
2017-May-25 08:14N 62°14' W 006°48'0 0.0
2017-May-24 14:30N 62°14' W 006°48'5 3.1
2017-May-24 12:52N 62°18' W 006°56'0 0.0
2017-May-24 12:05N 62°18' W 006°56'0 0.1
2017-May-24 12:00N 62°18' W 006°56'3 6.6
2017-May-24 11:31N 62°17' W 006°49'3 5.3
2017-May-24 11:00N 62°14' W 006°48'0 0.1
2017-May-24 10:30N 62°14' W 006°48'0 0.0
2017-May-24 09:59N 62°14' W 006°48'0 0.0
2017-May-24 09:31N 62°14' W 006°48'0 0.0
2017-May-24 08:32N 62°14' W 006°48'0 0.0
2017-May-24 08:28N 62°14' W 006°48'0 0.0
2017-May-24 08:00N 62°14' W 006°48'0 0.0
2017-May-24 07:30N 62°14' W 006°48'0 0.0
2017-May-24 06:48N 62°14' W 006°48'0 0.0
2017-May-24 06:27N 62°14' W 006°48'0 0.0
2017-May-24 05:59N 62°14' W 006°48'0 0.0
2017-May-24 05:30N 62°14' W 006°48'0 0.0
2017-May-24 04:55N 62°14' W 006°48'0 0.0
2017-May-24 03:34N 62°14' W 006°48'0 0.0
2017-May-24 03:19N 62°14' W 006°48'0 0.0
2017-May-24 02:08N 62°14' W 006°48'0 0.0
2017-May-24 01:52N 62°14' W 006°48'0 0.0
2017-May-24 01:31N 62°14' W 006°48'0 0.0
2017-May-24 00:57N 62°14' W 006°48'0 0.0
2017-May-24 00:26N 62°14' W 006°48'0 0.0
2017-May-23 23:57N 62°14' W 006°48'0 0.0
2017-May-23 23:30N 62°14' W 006°48'0 0.0
2017-May-23 23:00N 62°14' W 006°48'0 0.0
2017-May-23 22:30N 62°14' W 006°48'0 0.0
2017-May-23 22:00N 62°14' W 006°48'0 0.0
2017-May-23 21:30N 62°14' W 006°48'0 0.0
2017-May-23 21:00N 62°14' W 006°48'0 0.0
2017-May-23 20:30N 62°14' W 006°48'0 0.0
2017-May-23 20:00N 62°14' W 006°48'0 0.0
2017-May-23 19:30N 62°14' W 006°48'0 0.0
2017-May-23 19:00N 62°14' W 006°48'0 0.0
2017-May-23 18:30N 62°14' W 006°48'0 0.0
2017-May-23 18:00N 62°14' W 006°48'0 0.0
2017-May-23 17:30N 62°14' W 006°48'0 0.0
2017-May-23 17:00N 62°14' W 006°48'0 0.0
2017-May-23 16:30N 62°14' W 006°48'0 0.0
2017-May-23 16:00N 62°14' W 006°48'0 0.0
2017-May-23 15:30N 62°14' W 006°48'0 0.2
2017-May-23 14:12N 62°14' W 006°48'811.3
2017-May-23 13:30N 62°10' W 006°34'4 8.0
2017-May-23 13:00N 62°12' W 006°25'2 0.7
2017-May-23 10:16N 62°13' W 006°27'3 6.0
2017-May-23 09:45N 62°10' W 006°29'2 8.8
2017-May-23 09:30N 62°10' W 006°34'612.2
2017-May-23 09:00N 62°14' W 006°44'2 1.7
2017-May-23 07:51N 62°14' W 006°48'0 0.0
2017-May-23 07:19N 62°14' W 006°48'0 0.0
2017-May-23 06:59N 62°14' W 006°48'  
2017-May-20 19:55N 62°14' W 006°48'0 0.0
2017-May-20 19:30N 62°14' W 006°48'0 0.0
2017-May-20 19:00N 62°14' W 006°48'0 0.0
2017-May-20 18:30N 62°14' W 006°48'0 0.0
2017-May-20 18:00N 62°14' W 006°48'0 0.0
2017-May-20 17:29N 62°14' W 006°48'0 0.0
2017-May-20 17:00N 62°14' W 006°48'0 0.0
2017-May-20 16:30N 62°14' W 006°48'0 0.0
2017-May-20 16:00N 62°14' W 006°48'  
Track history (hours):
 
Tides and Currents Weather Stations Pressure Air Temp Water Temp Dewpoint Dewpoint Depression Visibility Wind Speed Wind Dir Waves Ship Positions

Hav Tind

Last reported at 2017-May-26 10:54 UTC. Time now 2017-May-26 16:51 UTC.
Position N 62°14' W 006°48'.

Length 60 m; draft 4 m.

Type: Cargo ship. MMSI: 231565000.

Date/timePositionNaut miles runAvg speedWind from/ knotsBaromVisibWave heightAir tempDewpointWater temp
2017-May-26 10:54N 62°14' W 006°48'0 0.0
2017-May-26 10:31N 62°14' W 006°48'0 0.0
2017-May-26 10:00N 62°14' W 006°48'0 0.0
2017-May-26 03:03N 62°14' W 006°48'0 0.0
2017-May-26 02:46N 62°14' W 006°48'0 0.0
2017-May-26 02:28N 62°14' W 006°48'0 0.0
2017-May-26 02:00N 62°14' W 006°48'0 0.0
2017-May-25 08:52N 62°14' W 006°48'0 0.0
2017-May-25 08:14N 62°14' W 006°48'0 0.0
2017-May-24 14:30N 62°14' W 006°48'5 3.1
2017-May-24 12:52N 62°18' W 006°56'0 0.0
2017-May-24 12:05N 62°18' W 006°56'0 0.1
2017-May-24 12:00N 62°18' W 006°56'3 6.6
2017-May-24 11:31N 62°17' W 006°49'3 5.3
2017-May-24 11:00N 62°14' W 006°48'0 0.1
2017-May-24 10:30N 62°14' W 006°48'0 0.0
2017-May-24 09:59N 62°14' W 006°48'0 0.0
2017-May-24 09:31N 62°14' W 006°48'0 0.0
2017-May-24 08:32N 62°14' W 006°48'0 0.0
2017-May-24 08:28N 62°14' W 006°48'0 0.0
2017-May-24 08:00N 62°14' W 006°48'0 0.0
2017-May-24 07:30N 62°14' W 006°48'0 0.0
2017-May-24 06:48N 62°14' W 006°48'0 0.0
2017-May-24 06:27N 62°14' W 006°48'0 0.0
2017-May-24 05:59N 62°14' W 006°48'0 0.0
2017-May-24 05:30N 62°14' W 006°48'0 0.0
2017-May-24 04:55N 62°14' W 006°48'0 0.0
2017-May-24 03:34N 62°14' W 006°48'0 0.0
2017-May-24 03:19N 62°14' W 006°48'0 0.0
2017-May-24 02:08N 62°14' W 006°48'0 0.0
2017-May-24 01:52N 62°14' W 006°48'0 0.0
2017-May-24 01:31N 62°14' W 006°48'0 0.0
2017-May-24 00:57N 62°14' W 006°48'0 0.0
2017-May-24 00:26N 62°14' W 006°48'0 0.0
2017-May-23 23:57N 62°14' W 006°48'0 0.0
2017-May-23 23:30N 62°14' W 006°48'0 0.0
2017-May-23 23:00N 62°14' W 006°48'0 0.0
2017-May-23 22:30N 62°14' W 006°48'0 0.0
2017-May-23 22:00N 62°14' W 006°48'0 0.0
2017-May-23 21:30N 62°14' W 006°48'0 0.0
2017-May-23 21:00N 62°14' W 006°48'0 0.0
2017-May-23 20:30N 62°14' W 006°48'0 0.0
2017-May-23 20:00N 62°14' W 006°48'0 0.0
2017-May-23 19:30N 62°14' W 006°48'0 0.0
2017-May-23 19:00N 62°14' W 006°48'0 0.0
2017-May-23 18:30N 62°14' W 006°48'0 0.0
2017-May-23 18:00N 62°14' W 006°48'0 0.0
2017-May-23 17:30N 62°14' W 006°48'0 0.0
2017-May-23 17:00N 62°14' W 006°48'0 0.0
2017-May-23 16:30N 62°14' W 006°48'0 0.0
2017-May-23 16:00N 62°14' W 006°48'0 0.0
2017-May-23 15:30N 62°14' W 006°48'0 0.2
2017-May-23 14:12N 62°14' W 006°48'811.3
2017-May-23 13:30N 62°10' W 006°34'4 8.0
2017-May-23 13:00N 62°12' W 006°25'2 0.7
2017-May-23 10:16N 62°13' W 006°27'3 6.0
2017-May-23 09:45N 62°10' W 006°29'2 8.8
2017-May-23 09:30N 62°10' W 006°34'612.2
2017-May-23 09:00N 62°14' W 006°44'2 1.7
2017-May-23 07:51N 62°14' W 006°48'0 0.0
2017-May-23 07:19N 62°14' W 006°48'0 0.0
2017-May-23 06:59N 62°14' W 006°48'  
2017-May-20 19:55N 62°14' W 006°48'0 0.0
2017-May-20 19:30N 62°14' W 006°48'0 0.0
2017-May-20 19:00N 62°14' W 006°48'0 0.0
2017-May-20 18:30N 62°14' W 006°48'0 0.0
2017-May-20 18:00N 62°14' W 006°48'0 0.0
2017-May-20 17:29N 62°14' W 006°48'0 0.0
2017-May-20 17:00N 62°14' W 006°48'0 0.0
2017-May-20 16:30N 62°14' W 006°48'0 0.0
2017-May-20 16:00N 62°14' W 006°48'  

Dump ship's entire track history